Time;durP1;ratioP1;P1;durP2;ratioP2;P2;SDS_P1;SDS_P2;PMS_P1;PMS_P2;Temp;Humidity;BMP_temperature;BMP_pressure;BME280_temperature;BME280_humidity;BME280_pressure;Samples;Min_cycle;Max_cycle;Signal;HPM_P1;HPM_P2
2023/10/04 00:00:21;;;;;;;4.47;2.70;;;;;;;15.96;59.29;97372.69;5009649;28;20442;-69
2023/10/04 00:02:52;;;;;;;5.07;2.40;;;;;;;15.98;59.06;97364.69;4997361;28;20411;-67
2023/10/04 00:05:19;;;;;;;4.37;2.40;;;;;;;15.79;59.66;97370.03;4990752;28;20451;-69
2023/10/04 00:07:50;;;;;;;8.20;3.40;;;;;;;15.76;59.31;97363.09;4991211;28;20430;-68
2023/10/04 00:10:17;;;;;;;8.47;3.20;;;;;;;15.82;58.84;97369.88;5008310;28;20442;-68
2023/10/04 00:12:44;;;;;;;8.10;2.07;;;;;;;15.87;58.88;97370.50;5009469;28;20423;-70
2023/10/04 00:15:12;;;;;;;5.13;2.10;;;;;;;15.65;59.44;97374.16;5009151;28;20430;-69
2023/10/04 00:17:42;;;;;;;12.30;3.80;;;;;;;15.78;59.54;97378.88;4998618;28;20786;-69
2023/10/04 00:20:13;;;;;;;5.10;2.17;;;;;;;15.59;60.11;97382.41;4990333;28;20476;-68
2023/10/04 00:22:40;;;;;;;4.23;2.37;;;;;;;15.61;60.15;97380.56;5005888;28;20437;-68
2023/10/04 00:25:11;;;;;;;3.50;2.70;;;;;;;15.59;59.90;97378.91;5008990;28;20809;-67
2023/10/04 00:27:43;;;;;;;3.10;2.50;;;;;;;15.46;60.37;97378.63;5000364;28;20437;-68
2023/10/04 00:30:17;;;;;;;2.63;1.83;;;;;;;15.58;59.88;97372.75;5009104;28;20466;-69
2023/10/04 00:32:46;;;;;;;5.83;2.70;;;;;;;15.74;59.43;97372.06;4999186;28;20430;-68
2023/10/04 00:35:19;;;;;;;5.90;2.67;;;;;;;15.75;59.43;97371.97;4989887;28;20435;-68
2023/10/04 00:37:51;;;;;;;3.37;2.40;;;;;;;15.68;59.44;97370.50;5004957;28;20430;-68
2023/10/04 00:40:21;;;;;;;6.50;2.40;;;;;;;15.81;59.29;97368.19;4991434;28;20452;-67
2023/10/04 00:42:50;;;;;;;6.43;2.70;;;;;;;15.50;60.29;97379.38;5008978;28;20443;-69
2023/10/04 00:45:22;;;;;;;4.20;2.73;;;;;;;15.46;59.99;97379.50;5008766;28;20434;-68
2023/10/04 00:47:51;;;;;;;3.63;2.80;;;;;;;15.21;60.98;97378.94;4990789;28;20428;-68
2023/10/04 00:50:29;;;;;;;4.70;2.80;;;;;;;15.25;61.07;97370.78;4993629;28;20447;-67
2023/10/04 00:53:12;;;;;;;4.70;1.90;;;;;;;15.33;60.64;97375.72;4993204;28;20525;-69
2023/10/04 00:55:46;;;;;;;5.43;2.33;;;;;;;15.37;60.58;97376.44;4997319;28;20435;-68
2023/10/04 00:58:13;;;;;;;2.90;2.03;;;;;;;15.25;60.79;97376.06;5004489;28;20462;-69
2023/10/04 01:00:40;;;;;;;7.40;3.20;;;;;;;15.16;61.18;97373.00;4999615;28;20454;-68
2023/10/04 01:03:09;;;;;;;9.10;2.90;;;;;;;15.30;60.52;97375.00;4989816;28;20462;-67
2023/10/04 01:05:45;;;;;;;4.93;2.30;;;;;;;15.24;60.85;97384.09;4994096;28;20430;-68
2023/10/04 01:08:13;;;;;;;5.33;2.40;;;;;;;15.12;61.34;97384.66;5000272;28;20424;-68
2023/10/04 01:10:38;;;;;;;4.57;2.63;;;;;;;15.17;61.12;97377.38;5008173;28;20974;-68
2023/10/04 01:13:09;;;;;;;5.10;2.93;;;;;;;15.21;60.80;97377.16;5008550;28;20419;-68
2023/10/04 01:15:42;;;;;;;7.53;2.47;;;;;;;15.16;61.06;97375.66;4997506;28;20192;-67
2023/10/04 01:18:11;;;;;;;3.57;2.20;;;;;;;15.09;61.29;97383.00;5002063;28;20458;-68
2023/10/04 01:20:38;;;;;;;4.23;2.40;;;;;;;15.01;60.97;97378.06;4990371;28;21413;-68
2023/10/04 01:23:06;;;;;;;3.30;2.30;;;;;;;14.97;61.45;97375.66;4989329;28;20424;-68
2023/10/04 01:25:36;;;;;;;11.10;3.07;;;;;;;14.97;61.73;97373.00;4998255;28;20435;-66
2023/10/04 01:28:12;;;;;;;16.77;3.30;;;;;;;14.96;61.70;97369.50;5008141;28;20431;-67
2023/10/04 01:30:42;;;;;;;5.53;3.00;;;;;;;14.91;61.87;97368.88;5008497;28;20455;-68
2023/10/04 01:33:15;;;;;;;7.57;2.80;;;;;;;14.88;61.84;97368.13;5008204;28;20458;-68
2023/10/04 01:35:45;;;;;;;3.53;2.57;;;;;;;14.93;61.55;97368.78;4995890;28;20518;-66
2023/10/04 01:38:11;;;;;;;14.50;4.07;;;;;;;14.81;61.87;97371.06;4989015;28;20455;-69
2023/10/04 01:40:38;;;;;;;8.37;2.73;;;;;;;14.89;61.58;97362.78;4998209;28;21126;-68
2023/10/04 01:43:15;;;;;;;9.20;4.03;;;;;;;14.78;61.81;97357.13;5010514;28;20917;-69
2023/10/04 01:45:45;;;;;;;17.87;3.20;;;;;;;14.81;62.04;97359.63;5004063;28;20470;-69
2023/10/04 01:48:14;;;;;;;3.20;2.10;;;;;;;14.73;62.41;97361.78;4999780;28;20424;-69
2023/10/04 01:50:40;;;;;;;5.83;2.80;;;;;;;14.75;61.81;97355.47;4991568;28;20436;-69
2023/10/04 01:53:06;;;;;;;3.47;2.00;;;;;;;14.76;61.98;97364.25;4994315;28;20420;-68
2023/10/04 01:55:31;;;;;;;4.13;2.60;;;;;;;14.89;61.54;97365.44;5004252;28;20184;-69
2023/10/04 01:57:57;;;;;;;5.43;3.00;;;;;;;14.68;62.09;97366.41;5006949;28;20473;-69
2023/10/04 02:00:23;;;;;;;4.43;2.87;;;;;;;14.32;63.06;97373.22;5006523;28;20245;-69
2023/10/04 02:02:49;;;;;;;4.67;2.40;;;;;;;14.06;64.03;97355.00;5007391;28;20594;-68
2023/10/04 02:05:19;;;;;;;9.17;2.63;;;;;;;14.01;64.41;97371.03;4998869;28;20429;-67
2023/10/04 02:07:45;;;;;;;8.37;2.93;;;;;;;14.14;63.93;97360.78;5007003;28;20188;-68
2023/10/04 02:10:17;;;;;;;3.80;2.43;;;;;;;14.41;63.20;97366.69;5007064;28;21012;-68
2023/10/04 02:12:43;;;;;;;26.90;5.60;;;;;;;14.49;62.36;97355.78;5007322;28;20188;-68
2023/10/04 02:15:14;;;;;;;5.93;3.07;;;;;;;14.38;62.79;97354.44;4990587;28;20849;-68
2023/10/04 02:17:44;;;;;;;5.23;2.90;;;;;;;14.54;62.55;97353.81;4997519;28;20627;-68
2023/10/04 02:20:25;;;;;;;3.90;2.30;;;;;;;14.41;62.82;97361.41;5002613;28;20472;-68
2023/10/04 02:22:51;;;;;;;4.60;2.50;;;;;;;14.40;62.75;97346.47;4987971;28;20420;-67
2023/10/04 02:25:17;;;;;;;4.90;2.33;;;;;;;14.41;62.73;97350.84;5006745;28;20462;-69
2023/10/04 02:27:44;;;;;;;7.80;3.17;;;;;;;14.47;62.48;97344.41;5006524;28;20945;-68
2023/10/04 02:30:15;;;;;;;10.73;2.90;;;;;;;14.56;62.30;97344.88;5000047;28;20436;-68
2023/10/04 02:32:44;;;;;;;11.23;3.23;;;;;;;14.48;62.39;97351.41;4987704;28;20430;-67
2023/10/04 02:35:11;;;;;;;4.17;2.90;;;;;;;14.43;62.38;97356.03;5000161;28;20983;-68
2023/10/04 02:37:38;;;;;;;9.00;3.27;;;;;;;14.48;62.12;97349.63;5006537;28;20469;-68
2023/10/04 02:40:14;;;;;;;6.20;2.77;;;;;;;14.43;62.31;97348.97;4998233;28;20468;-69
2023/10/04 02:42:41;;;;;;;4.50;2.83;;;;;;;14.40;62.26;97354.38;4990983;28;20917;-68
2023/10/04 02:45:07;;;;;;;6.97;2.90;;;;;;;14.42;62.40;97349.91;5005372;28;20835;-67
2023/10/04 02:47:33;;;;;;;4.37;2.80;;;;;;;14.33;62.53;97352.94;5006773;28;20435;-68
2023/10/04 02:49:58;;;;;;;6.50;2.50;;;;;;;14.32;62.63;97351.22;4997647;28;20827;-68
2023/10/04 02:52:23;;;;;;;5.83;2.87;;;;;;;14.33;62.44;97350.28;4990814;28;20173;-68
2023/10/04 02:54:49;;;;;;;4.47;2.70;;;;;;;14.28;62.30;97362.84;4992484;28;20168;-68
2023/10/04 02:57:15;;;;;;;4.37;2.60;;;;;;;14.25;62.46;97360.34;5005601;28;20238;-68
2023/10/04 02:59:41;;;;;;;4.93;2.30;;;;;;;14.17;62.54;97358.91;5005701;28;20238;-67
2023/10/04 03:02:07;;;;;;;7.43;3.00;;;;;;;14.31;62.03;97365.34;4987719;28;20428;-67
2023/10/04 03:04:33;;;;;;;4.53;2.60;;;;;;;14.24;62.50;97371.81;4987653;28;20605;-69
2023/10/04 03:06:59;;;;;;;5.40;2.53;;;;;;;14.21;62.25;97362.25;5002899;28;20431;-69
2023/10/04 03:09:24;;;;;;;4.43;2.70;;;;;;;14.22;62.42;97365.72;5006472;28;20796;-68
2023/10/04 03:11:50;;;;;;;4.60;3.60;;;;;;;14.19;62.62;97366.72;4987647;28;20243;-68
2023/10/04 03:14:16;;;;;;;4.83;3.23;;;;;;;14.14;62.63;97364.28;4987805;28;20181;-68
2023/10/04 03:16:42;;;;;;;5.70;3.13;;;;;;;14.17;62.38;97363.28;5003784;28;20722;-68
2023/10/04 03:19:09;;;;;;;7.30;3.30;;;;;;;14.16;62.51;97362.44;5008603;28;20204;-69
2023/10/04 03:21:34;;;;;;;5.03;3.07;;;;;;;14.02;62.90;97370.09;5009460;28;20423;-68
2023/10/04 03:24:10;;;;;;;16.27;4.07;;;;;;;14.01;63.00;97368.38;5009711;28;20490;-67
2023/10/04 03:26:35;;;;;;;4.60;3.90;;;;;;;13.92;63.00;97371.41;4991024;28;20188;-69
2023/10/04 03:29:01;;;;;;;6.83;3.20;;;;;;;14.01;62.75;97360.47;4988277;28;20545;-69
2023/10/04 03:31:27;;;;;;;12.43;3.47;;;;;;;14.06;62.79;97365.56;5005922;28;20901;-69
2023/10/04 03:33:53;;;;;;;10.13;3.20;;;;;;;14.05;62.51;97366.47;5005754;28;20229;-69
2023/10/04 03:36:18;;;;;;;54.67;7.00;;;;;;;14.01;62.45;97373.66;4990052;28;20675;-70
2023/10/04 03:38:49;;;;;;;22.30;4.50;;;;;;;14.02;62.75;97375.38;5005659;28;20557;-68
2023/10/04 03:41:16;;;;;;;41.87;8.03;;;;;;;13.98;62.77;97376.41;5005901;28;20204;-67
2023/10/04 03:43:42;;;;;;;5.40;2.90;;;;;;;13.92;62.76;97374.03;5005957;28;20419;-67
2023/10/04 03:46:17;;;;;;;42.33;7.47;;;;;;;13.98;62.46;97379.03;4988574;28;20941;-68
2023/10/04 03:48:43;;;;;;;20.97;4.00;;;;;;;13.73;63.12;97380.06;4990980;28;20171;-67
2023/10/04 03:51:09;;;;;;;4.70;2.40;;;;;;;13.74;63.43;97373.00;4997361;28;20435;-68
2023/10/04 03:53:34;;;;;;;5.10;2.60;;;;;;;13.84;62.82;97373.50;5002479;28;20431;-68
2023/10/04 03:56:00;;;;;;;6.50;2.43;;;;;;;13.79;63.21;97378.09;5003970;28;20184;-68
2023/10/04 03:58:25;;;;;;;11.50;3.70;;;;;;;13.80;62.98;97378.03;4987781;28;20216;-69
2023/10/04 04:00:51;;;;;;;8.27;3.77;;;;;;;13.81;62.53;97370.97;4997312;28;20832;-68
2023/10/04 04:03:18;;;;;;;8.53;3.07;;;;;;;13.74;62.77;97368.59;4993143;28;20208;-68
2023/10/04 04:05:44;;;;;;;5.50;2.40;;;;;;;13.73;62.80;97369.53;5003595;28;20427;-67
2023/10/04 04:08:11;;;;;;;3.20;2.30;;;;;;;13.70;63.19;97374.94;5003413;28;20442;-68
2023/10/04 04:10:36;;;;;;;10.20;3.67;;;;;;;13.72;62.84;97372.22;5003676;28;20235;-67
2023/10/04 04:13:03;;;;;;;8.43;3.17;;;;;;;13.72;62.70;97377.50;4988741;28;20468;-69
2023/10/04 04:15:33;;;;;;;4.83;2.90;;;;;;;13.75;62.98;97378.25;4994814;28;20625;-69
2023/10/04 04:17:58;;;;;;;5.20;2.87;;;;;;;13.64;63.44;97380.44;5000998;28;20930;-68
2023/10/04 04:20:24;;;;;;;10.70;4.10;;;;;;;13.71;63.15;97373.16;5001747;28;20446;-68
2023/10/04 04:22:53;;;;;;;4.73;2.37;;;;;;;13.64;63.02;97374.31;5004568;28;20192;-68
2023/10/04 04:25:19;;;;;;;7.77;2.80;;;;;;;13.54;62.87;97381.75;5000672;28;20177;-68
2023/10/04 04:27:50;;;;;;;9.93;2.83;;;;;;;13.43;63.26;97386.56;4986185;28;20420;-69
2023/10/04 04:30:19;;;;;;;7.43;2.23;;;;;;;13.45;63.37;97384.75;4986337;28;20455;-67
2023/10/04 04:32:52;;;;;;;7.50;2.87;;;;;;;13.43;63.38;97394.50;4986266;28;20494;-68
2023/10/04 04:38:22;;;;;;;10.00;3.23;;;;;;;13.42;62.91;97384.88;4996325;28;20894;-68
2023/10/04 04:40:49;;;;;;;10.53;3.47;;;;;;;13.40;63.08;97381.44;4989736;28;21322;-69
2023/10/04 04:45:52;;;;;;;11.50;4.17;;;;;;;13.35;62.74;97378.97;4997537;28;20774;-68
2023/10/04 04:48:23;;;;;;;5.87;3.30;;;;;;;13.51;63.00;97379.22;5004171;28;20430;-69
2023/10/04 04:50:49;;;;;;;14.60;3.70;;;;;;;13.31;63.06;97367.69;4993948;28;20448;-69
2023/10/04 04:53:18;;;;;;;6.07;3.23;;;;;;;13.15;64.03;97377.06;5004436;28;20431;-68
2023/10/04 04:55:43;;;;;;;11.70;4.30;;;;;;;13.27;64.01;97375.72;4987762;28;20522;-67
2023/10/04 04:58:12;;;;;;;7.80;3.97;;;;;;;13.04;64.28;97377.50;4988777;28;20895;-71
2023/10/04 05:00:42;;;;;;;11.80;3.67;;;;;;;13.22;64.31;97382.97;4988998;28;20215;-74
2023/10/04 05:03:08;;;;;;;29.43;6.00;;;;;;;13.22;64.53;97383.81;5001319;28;20416;-74
2023/10/04 05:05:33;;;;;;;10.30;5.27;;;;;;;13.17;64.96;97379.66;4988306;28;20438;-73
2023/10/04 05:07:58;;;;;;;15.67;3.47;;;;;;;13.17;64.46;97380.50;5000934;28;20290;-72
2023/10/04 05:10:25;;;;;;;15.80;4.77;;;;;;;13.16;64.29;97384.06;4989230;28;20747;-72
2023/10/04 05:12:53;;;;;;;15.53;4.20;;;;;;;13.26;63.74;97388.06;4997135;28;20180;-72
2023/10/04 05:15:23;;;;;;;37.40;6.33;;;;;;;13.24;63.42;97389.03;4998857;28;20881;-73
2023/10/04 05:17:52;;;;;;;21.13;4.60;;;;;;;13.25;63.57;97385.47;5003774;28;20416;-75
2023/10/04 05:20:19;;;;;;;5.90;3.40;;;;;;;13.13;63.16;97389.44;5005528;28;20571;-74
2023/10/04 05:22:45;;;;;;;15.97;4.30;;;;;;;13.26;63.02;97397.75;4987440;28;20424;-74
2023/10/04 05:25:12;;;;;;;22.50;4.80;;;;;;;13.19;63.16;97393.63;4999128;28;20502;-76
2023/10/04 05:27:37;;;;;;;11.60;3.93;;;;;;;13.21;62.70;97395.28;5000483;28;20416;-76
2023/10/04 05:30:04;;;;;;;10.80;4.20;;;;;;;13.45;62.42;97396.16;4996656;28;21339;-74
2023/10/04 05:32:29;;;;;;;11.53;4.40;;;;;;;13.76;60.79;97384.38;4988027;28;20169;-72
2023/10/04 05:34:55;;;;;;;8.57;4.10;;;;;;;13.96;60.28;97391.44;5005837;28;20493;-71
2023/10/04 05:37:20;;;;;;;12.10;4.40;;;;;;;14.25;59.50;97392.88;5007234;28;20776;-73
2023/10/04 05:39:46;;;;;;;9.43;4.17;;;;;;;14.33;58.97;97403.09;5007650;28;20228;-73
2023/10/04 05:42:11;;;;;;;6.73;3.50;;;;;;;14.21;59.05;97404.47;5007823;28;20180;-72
2023/10/04 05:44:38;;;;;;;13.30;4.50;;;;;;;14.56;58.20;97391.59;5007757;28;20180;-73
2023/10/04 05:47:05;;;;;;;7.70;4.13;;;;;;;15.12;56.76;97395.22;5007826;28;20178;-72
2023/10/04 05:49:31;;;;;;;10.90;5.37;;;;;;;15.84;54.36;97400.63;5007846;28;20427;-72
2023/10/04 05:51:57;;;;;;;17.13;5.63;;;;;;;16.11;53.83;97399.34;5008211;28;20416;-74
2023/10/04 05:54:23;;;;;;;13.07;4.57;;;;;;;16.35;52.75;97400.75;5008069;28;20408;-72
2023/10/04 05:56:48;;;;;;;9.00;5.03;;;;;;;16.75;51.36;97403.13;5006835;28;20422;-74
2023/10/04 05:59:14;;;;;;;18.30;5.23;;;;;;;17.14;50.66;97389.56;5008108;28;20199;-73
2023/10/04 06:01:39;;;;;;;17.03;5.23;;;;;;;17.37;49.54;97393.59;5007637;28;20172;-73
2023/10/04 06:04:05;;;;;;;10.17;3.13;;;;;;;17.57;48.69;97395.13;5007650;28;20176;-71
2023/10/04 06:06:32;;;;;;;6.97;3.33;;;;;;;17.85;48.12;97397.13;5007977;28;20703;-72
2023/10/04 06:08:59;;;;;;;12.00;4.10;;;;;;;18.09;47.35;97391.34;5009981;28;20414;-73
2023/10/04 06:11:25;;;;;;;5.20;3.73;;;;;;;18.55;46.27;97391.28;5010023;28;20431;-73
2023/10/04 06:13:50;;;;;;;8.17;4.67;;;;;;;18.80;45.26;97391.56;5009673;28;20408;-72
2023/10/04 06:16:20;;;;;;;17.37;4.07;;;;;;;19.14;44.33;97396.59;5009215;28;20457;-75
2023/10/04 06:18:48;;;;;;;12.00;3.30;;;;;;;19.58;43.62;97400.88;5010379;28;20196;-72
2023/10/04 06:21:16;;;;;;;5.63;3.43;;;;;;;19.79;43.29;97396.00;5009913;28;20443;-72
2023/10/04 06:23:43;;;;;;;23.50;7.60;;;;;;;19.96;42.69;97398.44;5009706;28;20413;-74
2023/10/04 06:26:08;;;;;;;13.60;4.57;;;;;;;20.20;41.83;97387.97;5010120;28;20407;-72
2023/10/04 06:28:34;;;;;;;19.87;5.53;;;;;;;20.51;41.60;97380.56;5010234;28;20407;-71
2023/10/04 06:31:02;;;;;;;22.53;5.63;;;;;;;20.96;40.37;97393.53;5010317;28;20725;-71
2023/10/04 06:33:28;;;;;;;7.00;3.30;;;;;;;20.99;40.82;97387.97;5011291;28;20745;-71
2023/10/04 06:35:53;;;;;;;9.23;4.10;;;;;;;21.35;39.84;97397.84;5010455;28;20415;-74
2023/10/04 06:38:20;;;;;;;8.67;4.30;;;;;;;21.50;39.34;97388.75;5015269;28;20188;-73
2023/10/04 06:40:46;;;;;;;32.57;6.73;;;;;;;21.92;38.82;97389.28;5009060;28;20679;-73
2023/10/04 06:43:14;;;;;;;5.57;4.37;;;;;;;22.99;36.55;97388.31;5008752;28;20414;-72
2023/10/04 06:45:40;;;;;;;6.40;4.17;;;;;;;22.54;37.03;97390.03;5008794;28;20255;-72
2023/10/04 06:48:06;;;;;;;8.97;4.20;;;;;;;21.40;39.26;97398.38;5009037;28;20873;-73
2023/10/04 06:50:42;;;;;;;10.83;4.07;;;;;;;21.13;40.33;97407.38;5008885;28;20207;-74
2023/10/04 06:53:12;;;;;;;13.13;4.97;;;;;;;21.22;39.81;97413.88;5008778;28;20445;-72
2023/10/04 06:55:38;;;;;;;15.53;5.37;;;;;;;21.36;39.55;97413.75;5008234;28;20411;-73
2023/10/04 06:58:04;;;;;;;14.53;4.80;;;;;;;21.57;39.33;97418.56;5008486;28;20421;-73
2023/10/04 07:00:30;;;;;;;27.53;6.27;;;;;;;22.13;38.07;97412.69;5008067;28;20435;-73
2023/10/04 07:02:58;;;;;;;24.90;6.03;;;;;;;20.80;40.85;97413.25;5008666;28;20418;-73
2023/10/04 07:05:39;;;;;;;13.50;5.40;;;;;;;19.94;42.74;97419.00;5006978;28;20419;-72
2023/10/04 07:08:06;;;;;;;18.97;4.97;;;;;;;21.32;40.06;97420.25;5008177;28;20450;-72
2023/10/04 07:10:33;;;;;;;6.00;4.30;;;;;;;21.14;40.28;97421.56;5008026;28;21077;-72
2023/10/04 07:13:01;;;;;;;12.00;4.97;;;;;;;21.87;39.24;97427.97;5008299;28;20937;-74
2023/10/04 07:15:28;;;;;;;11.40;4.80;;;;;;;21.10;40.67;97423.59;5007949;28;20900;-72
2023/10/04 07:17:54;;;;;;;9.20;5.40;;;;;;;21.81;39.40;97428.44;5007546;28;20867;-74
2023/10/04 07:20:19;;;;;;;8.53;6.33;;;;;;;22.57;38.04;97435.25;5007751;28;20477;-73
2023/10/04 07:23:08;;;;;;;11.43;5.90;;;;;;;23.07;36.91;97418.97;5008222;28;20411;-72
2023/10/04 07:25:36;;;;;;;11.57;5.87;;;;;;;22.90;37.32;97422.94;5008323;28;20196;-73
2023/10/04 07:28:03;;;;;;;12.80;6.97;;;;;;;22.81;37.36;97425.34;5008520;28;20415;-74
2023/10/04 07:30:36;;;;;;;10.60;5.67;;;;;;;22.45;38.21;97423.66;5008324;28;20434;-73
2023/10/04 07:33:02;;;;;;;11.30;5.83;;;;;;;22.76;38.05;97430.19;5006726;28;20415;-73
2023/10/04 07:35:28;;;;;;;13.80;5.77;;;;;;;23.04;37.43;97423.59;5007798;28;20418;-73
2023/10/04 07:37:55;;;;;;;12.50;5.90;;;;;;;23.50;36.94;97427.13;5007363;28;20817;-73
2023/10/04 07:40:24;;;;;;;10.50;7.03;;;;;;;23.69;36.51;97423.81;5007351;28;20705;-73
2023/10/04 07:42:53;;;;;;;13.77;6.23;;;;;;;23.63;36.64;97416.31;5007854;28;20407;-74
2023/10/04 07:45:22;;;;;;;9.40;4.83;;;;;;;23.39;36.96;97422.66;5007958;28;20518;-73
2023/10/04 07:47:47;;;;;;;12.60;5.13;;;;;;;23.61;36.72;97421.78;5008154;28;20411;-74
2023/10/04 07:50:15;;;;;;;17.67;5.60;;;;;;;23.54;36.78;97417.03;5008175;28;20431;-73
2023/10/04 07:52:44;;;;;;;6.17;4.57;;;;;;;23.46;36.94;97426.53;5008265;28;20593;-74
2023/10/04 07:55:17;;;;;;;15.83;4.97;;;;;;;23.49;37.03;97427.28;5008670;28;20421;-72
2023/10/04 07:57:49;;;;;;;6.90;5.00;;;;;;;23.79;36.64;97416.81;5008652;28;20418;-73
2023/10/04 08:00:16;;;;;;;16.17;5.50;;;;;;;23.48;36.96;97423.75;5009061;28;20459;-73
2023/10/04 08:02:46;;;;;;;15.30;4.87;;;;;;;24.02;36.23;97427.47;5008731;28;20411;-73
2023/10/04 08:05:20;;;;;;;5.77;4.40;;;;;;;23.95;36.29;97418.22;5008683;28;20419;-74
2023/10/04 08:07:52;;;;;;;10.17;4.97;;;;;;;24.05;35.81;97413.81;5008783;28;21307;-73
2023/10/04 08:10:18;;;;;;;7.17;3.93;;;;;;;24.14;35.26;97412.19;5008729;28;20438;-74
2023/10/04 08:12:46;;;;;;;12.33;4.70;;;;;;;24.27;35.63;97416.41;5008090;28;20459;-71
2023/10/04 08:15:15;;;;;;;9.47;4.20;;;;;;;23.83;36.11;97415.56;5008610;28;20183;-73
2023/10/04 08:17:43;;;;;;;5.50;4.33;;;;;;;24.38;35.21;97411.97;5008015;28;20782;-73
2023/10/04 08:20:12;;;;;;;7.10;4.30;;;;;;;24.37;35.49;97412.97;5011413;28;20458;-73
2023/10/04 08:22:38;;;;;;;15.80;4.93;;;;;;;24.08;35.83;97413.56;5012157;28;21132;-75
2023/10/04 08:25:03;;;;;;;8.33;4.30;;;;;;;23.18;37.11;97421.69;5012737;28;20407;-73
2023/10/04 08:27:29;;;;;;;5.97;3.70;;;;;;;22.95;37.47;97421.59;5012607;28;20647;-72
2023/10/04 08:29:54;;;;;;;6.00;3.80;;;;;;;23.91;36.64;97422.16;5012976;28;20241;-72
2023/10/04 08:32:20;;;;;;;8.70;4.37;;;;;;;24.24;35.57;97408.63;5012390;28;20176;-74
2023/10/04 08:34:45;;;;;;;10.43;5.03;;;;;;;24.50;35.03;97398.41;5012686;28;20172;-74
2023/10/04 08:37:11;;;;;;;11.50;4.50;;;;;;;24.64;34.10;97413.34;5013265;28;20592;-74
2023/10/04 08:39:37;;;;;;;6.00;3.70;;;;;;;24.65;33.78;97409.69;5015059;28;20773;-74
2023/10/04 08:42:03;;;;;;;6.00;3.10;;;;;;;24.62;33.56;97412.63;5019269;28;20187;-73
2023/10/04 08:44:30;;;;;;;8.10;3.77;;;;;;;24.59;33.79;97407.53;5019983;28;20598;-74
2023/10/04 08:46:59;;;;;;;21.23;4.63;;;;;;;24.85;34.01;97399.06;5026883;28;20411;-75
2023/10/04 08:49:31;;;;;;;15.57;4.10;;;;;;;24.68;33.19;97400.50;5027644;28;20419;-73
2023/10/04 08:52:03;;;;;;;6.40;3.47;;;;;;;24.57;33.63;97409.50;5024093;28;20415;-74
2023/10/04 08:54:29;;;;;;;4.73;2.63;;;;;;;24.89;32.56;97408.56;5012488;28;20420;-71
2023/10/04 08:57:04;;;;;;;6.83;2.70;;;;;;;24.91;32.71;97406.59;5011227;28;20439;-72
2023/10/04 08:59:33;;;;;;;5.77;3.30;;;;;;;24.81;32.68;97403.00;5011391;28;20208;-74
2023/10/04 09:02:01;;;;;;;4.77;2.73;;;;;;;24.76;33.29;97405.22;5011534;28;20485;-74
2023/10/04 09:04:27;;;;;;;10.23;2.80;;;;;;;24.65;32.90;97401.63;5011402;28;20419;-73
2023/10/04 09:06:53;;;;;;;4.70;2.50;;;;;;;23.48;34.37;97396.09;5010965;28;20403;-73
2023/10/04 09:09:19;;;;;;;6.90;2.67;;;;;;;24.04;33.66;97394.16;5011357;28;20176;-74
2023/10/04 09:11:45;;;;;;;30.27;4.10;;;;;;;24.78;33.06;97393.38;5011633;28;20203;-72
2023/10/04 09:14:17;;;;;;;12.20;3.60;;;;;;;25.11;32.56;97394.13;5011331;28;20414;-71
2023/10/04 09:16:43;;;;;;;6.73;2.50;;;;;;;24.85;32.79;97389.19;5011336;28;20489;-74
2023/10/04 09:19:18;;;;;;;5.80;3.20;;;;;;;24.84;32.47;97386.63;5010981;28;20446;-74
2023/10/04 09:21:46;;;;;;;29.17;5.20;;;;;;;24.88;31.59;97390.75;5012222;28;20179;-73
2023/10/04 09:24:14;;;;;;;14.17;3.43;;;;;;;24.97;31.61;97399.84;5013792;28;20408;-74
2023/10/04 09:26:50;;;;;;;17.23;3.50;;;;;;;24.76;31.24;97384.63;5010608;28;20410;-73
2023/10/04 09:29:27;;;;;;;14.40;3.20;;;;;;;25.17;30.62;97373.94;5010272;28;20491;-73
2023/10/04 09:31:55;;;;;;;7.07;2.63;;;;;;;25.27;31.42;97374.84;5009994;28;20419;-74
2023/10/04 09:34:24;;;;;;;2.80;1.70;;;;;;;23.89;32.11;97379.38;5010204;28;20415;-74
2023/10/04 09:36:54;;;;;;;6.27;2.90;;;;;;;24.65;32.20;97369.41;5010042;28;20491;-75
2023/10/04 09:39:32;;;;;;;6.73;2.40;;;;;;;24.57;31.59;97374.59;5010516;28;20454;-73
2023/10/04 09:42:03;;;;;;;12.53;2.60;;;;;;;24.66;31.08;97378.31;5010212;28;20437;-75
2023/10/04 09:44:30;;;;;;;3.30;1.53;;;;;;;24.00;31.72;97375.78;5010896;28;20418;-74
2023/10/04 09:47:00;;;;;;;29.33;6.17;;;;;;;24.69;30.91;97367.34;5009858;28;20415;-73
2023/10/04 09:49:33;;;;;;;7.13;2.07;;;;;;;24.61;31.28;97359.91;5010480;28;20419;-72
2023/10/04 09:52:00;;;;;;;17.57;3.00;;;;;;;25.00;30.47;97357.47;5010947;28;20415;-73
2023/10/04 09:54:34;;;;;;;3.10;1.60;;;;;;;24.67;30.74;97355.88;5010243;28;20411;-72
2023/10/04 09:57:03;;;;;;;5.70;2.30;;;;;;;24.60;30.87;97355.53;5010653;28;20403;-73
2023/10/04 09:59:29;;;;;;;5.47;1.97;;;;;;;24.05;31.24;97357.50;5009339;28;20469;-73
2023/10/04 10:01:59;;;;;;;6.10;2.40;;;;;;;24.42;31.10;97351.72;5010502;28;20408;-74
2023/10/04 10:04:29;;;;;;;11.80;2.70;;;;;;;24.78;30.86;97353.13;5011056;28;21146;-72
2023/10/04 10:07:16;;;;;;;14.37;3.30;;;;;;;24.97;30.15;97352.38;5010914;28;20414;-74
2023/10/04 10:10:01;;;;;;;3.97;2.20;;;;;;;25.00;29.71;97352.09;5011417;28;20438;-73
2023/10/04 10:12:31;;;;;;;5.23;1.77;;;;;;;25.11;29.51;97346.66;5011205;28;20434;-73
2023/10/04 10:15:00;;;;;;;13.57;2.40;;;;;;;25.09;29.60;97351.28;5010938;28;20899;-74
2023/10/04 10:17:26;;;;;;;8.40;2.47;;;;;;;25.11;29.76;97345.75;5010344;28;20415;-75
2023/10/04 10:19:52;;;;;;;7.93;2.10;;;;;;;25.02;30.13;97349.28;5009961;28;20579;-74
2023/10/04 10:22:19;;;;;;;17.03;4.03;;;;;;;25.00;30.30;97345.88;5010215;28;20978;-74
2023/10/04 10:24:56;;;;;;;6.87;2.40;;;;;;;24.15;30.29;97341.50;5010759;28;20708;-74
2023/10/04 10:27:23;;;;;;;6.90;2.63;;;;;;;23.98;30.69;97350.97;5010400;28;20417;-72
2023/10/04 10:29:50;;;;;;;6.97;2.30;;;;;;;23.80;30.60;97346.13;5010858;28;20457;-74
2023/10/04 10:32:23;;;;;;;2.20;1.40;;;;;;;22.99;31.81;97358.03;5010876;28;20921;-76
2023/10/04 10:34:51;;;;;;;6.20;2.90;;;;;;;23.05;32.37;97357.50;5010731;28;20484;-77
2023/10/04 10:37:19;;;;;;;7.10;2.70;;;;;;;23.01;32.22;97350.72;5010774;28;20497;-73
2023/10/04 10:39:52;;;;;;;6.13;2.07;;;;;;;22.20;33.02;97347.09;5009857;28;20466;-74
2023/10/04 10:42:18;;;;;;;3.97;2.10;;;;;;;22.00;33.61;97353.94;5009624;28;20415;-73
2023/10/04 10:44:45;;;;;;;4.50;2.10;;;;;;;22.59;33.03;97339.69;5007204;28;20477;-75
2023/10/04 10:47:19;;;;;;;2.20;1.40;;;;;;;22.50;32.38;97338.56;5008688;28;20455;-74
2023/10/04 10:50:02;;;;;;;3.87;1.90;;;;;;;22.69;32.68;97339.81;5008863;28;20443;-75
2023/10/04 10:52:34;;;;;;;6.60;2.10;;;;;;;23.19;31.61;97327.81;5009516;28;20419;-77
2023/10/04 10:55:05;;;;;;;20.10;4.10;;;;;;;23.65;31.66;97332.13;5009176;28;20490;-74
2023/10/04 10:57:31;;;;;;;4.13;1.80;;;;;;;23.91;30.06;97334.53;5009675;28;20434;-75
2023/10/04 10:59:58;;;;;;;4.47;2.17;;;;;;;24.10;29.23;97325.78;5008465;28;20471;-76
2023/10/04 11:02:25;;;;;;;8.93;2.63;;;;;;;22.93;30.19;97337.88;5008394;28;20176;-74
2023/10/04 11:04:52;;;;;;;4.37;1.67;;;;;;;23.28;30.68;97336.94;5010673;28;20446;-75
2023/10/04 11:07:19;;;;;;;4.30;1.83;;;;;;;23.43;30.57;97332.16;5010411;28;20499;-73
2023/10/04 11:09:52;;;;;;;7.03;2.37;;;;;;;23.87;30.12;97325.88;5010369;28;20427;-75
2023/10/04 11:12:22;;;;;;;5.93;2.73;;;;;;;24.13;30.13;97319.31;5010233;28;20502;-73
2023/10/04 11:14:51;;;;;;;8.27;2.77;;;;;;;24.37;30.22;97321.75;5010934;28;20450;-71
2023/10/04 11:17:18;;;;;;;37.20;6.40;;;;;;;24.28;30.29;97328.72;5009019;28;20411;-74
2023/10/04 11:19:44;;;;;;;28.10;3.93;;;;;;;24.42;29.86;97322.19;5008509;28;20467;-75
2023/10/04 11:22:14;;;;;;;13.63;2.10;;;;;;;24.27;29.13;97324.38;5007223;28;20462;-74
2023/10/04 11:24:40;;;;;;;2.90;1.83;;;;;;;24.04;29.15;97315.56;5009102;28;20419;-74
2023/10/04 11:27:07;;;;;;;5.80;2.37;;;;;;;24.02;29.44;97307.63;5009087;28;20506;-73
2023/10/04 11:29:33;;;;;;;8.73;1.70;;;;;;;23.98;30.11;97300.00;5009315;28;20446;-73
2023/10/04 11:31:59;;;;;;;8.90;2.07;;;;;;;23.41;30.32;97310.88;5024332;28;20454;-73
2023/10/04 11:34:28;;;;;;;28.60;4.57;;;;;;;23.34;31.04;97308.81;5010086;28;20907;-74
2023/10/04 11:36:59;;;;;;;20.40;3.90;;;;;;;23.42;30.89;97301.00;5009751;28;20258;-72
2023/10/04 11:39:33;;;;;;;5.70;3.37;;;;;;;23.39;30.63;97295.91;5009499;28;20533;-73